sensor_id;sensor_type;location;lat;lon;timestamp;P1;durP1;ratioP1;P2;durP2;ratioP2
43771;SDS011;59066;54.782;32.024;2022-11-10T00:00:06;23.65;;;17.48;;
43771;SDS011;59066;54.782;32.024;2022-11-10T00:02:53;24.52;;;16.75;;
43771;SDS011;59066;54.782;32.024;2022-11-10T00:05:39;26.17;;;18.70;;
43771;SDS011;59066;54.782;32.024;2022-11-10T00:08:25;23.65;;;17.65;;
43771;SDS011;59066;54.782;32.024;2022-11-10T00:11:11;23.25;;;15.52;;
43771;SDS011;59066;54.782;32.024;2022-11-10T00:13:56;25.95;;;16.95;;
43771;SDS011;59066;54.782;32.024;2022-11-10T00:17:01;22.77;;;17.42;;
43771;SDS011;59066;54.782;32.024;2022-11-10T00:19:50;24.13;;;17.52;;
43771;SDS011;59066;54.782;32.024;2022-11-10T00:22:36;26.17;;;17.33;;
43771;SDS011;59066;54.782;32.024;2022-11-10T00:25:24;22.95;;;18.50;;
43771;SDS011;59066;54.782;32.024;2022-11-10T00:28:10;21.70;;;15.70;;
43771;SDS011;59066;54.782;32.024;2022-11-10T00:30:57;23.40;;;16.45;;
43771;SDS011;59066;54.782;32.024;2022-11-10T00:33:43;26.13;;;19.40;;
43771;SDS011;59066;54.782;32.024;2022-11-10T00:36:29;24.48;;;18.48;;
43771;SDS011;59066;54.782;32.024;2022-11-10T00:39:14;21.90;;;15.85;;
43771;SDS011;59066;54.782;32.024;2022-11-10T00:42:01;22.85;;;18.42;;
43771;SDS011;59066;54.782;32.024;2022-11-10T00:44:47;26.17;;;18.33;;
43771;SDS011;59066;54.782;32.024;2022-11-10T00:47:33;23.65;;;16.90;;
43771;SDS011;59066;54.782;32.024;2022-11-10T00:50:19;25.20;;;17.52;;
43771;SDS011;59066;54.782;32.024;2022-11-10T00:53:05;28.17;;;17.85;;
43771;SDS011;59066;54.782;32.024;2022-11-10T00:55:51;24.27;;;18.85;;
43771;SDS011;59066;54.782;32.024;2022-11-10T00:58:36;27.90;;;19.92;;
43771;SDS011;59066;54.782;32.024;2022-11-10T01:01:23;25.42;;;18.73;;
43771;SDS011;59066;54.782;32.024;2022-11-10T01:04:09;25.88;;;17.60;;
43771;SDS011;59066;54.782;32.024;2022-11-10T01:06:55;27.00;;;19.90;;
43771;SDS011;59066;54.782;32.024;2022-11-10T01:09:41;28.55;;;19.08;;
43771;SDS011;59066;54.782;32.024;2022-11-10T01:12:27;30.63;;;20.17;;
43771;SDS011;59066;54.782;32.024;2022-11-10T01:15:15;28.27;;;20.35;;
43771;SDS011;59066;54.782;32.024;2022-11-10T01:18:01;27.90;;;19.02;;
43771;SDS011;59066;54.782;32.024;2022-11-10T01:20:50;24.27;;;20.08;;
43771;SDS011;59066;54.782;32.024;2022-11-10T01:23:37;26.85;;;19.05;;
43771;SDS011;59066;54.782;32.024;2022-11-10T01:26:23;28.08;;;20.15;;
43771;SDS011;59066;54.782;32.024;2022-11-10T01:29:09;27.53;;;21.17;;
43771;SDS011;59066;54.782;32.024;2022-11-10T01:31:55;26.27;;;19.63;;
43771;SDS011;59066;54.782;32.024;2022-11-10T01:34:41;29.27;;;20.88;;
43771;SDS011;59066;54.782;32.024;2022-11-10T01:37:27;31.42;;;23.48;;
43771;SDS011;59066;54.782;32.024;2022-11-10T01:40:13;29.13;;;21.73;;
43771;SDS011;59066;54.782;32.024;2022-11-10T01:42:59;29.00;;;20.27;;
43771;SDS011;59066;54.782;32.024;2022-11-10T01:48:42;30.98;;;20.83;;
43771;SDS011;59066;54.782;32.024;2022-11-10T01:51:44;29.48;;;22.83;;
43771;SDS011;59066;54.782;32.024;2022-11-10T01:54:35;27.23;;;19.80;;
43771;SDS011;59066;54.782;32.024;2022-11-10T01:57:25;28.95;;;20.85;;
43771;SDS011;59066;54.782;32.024;2022-11-10T02:00:11;28.75;;;19.63;;
43771;SDS011;59066;54.782;32.024;2022-11-10T02:03:13;28.77;;;21.52;;
43771;SDS011;59066;54.782;32.024;2022-11-10T02:05:59;30.85;;;23.63;;
43771;SDS011;59066;54.782;32.024;2022-11-10T02:08:45;30.52;;;19.58;;
43771;SDS011;59066;54.782;32.024;2022-11-10T02:11:32;25.00;;;17.63;;
43771;SDS011;59066;54.782;32.024;2022-11-10T02:14:20;32.40;;;23.38;;
43771;SDS011;59066;54.782;32.024;2022-11-10T02:17:06;26.90;;;19.70;;
43771;SDS011;59066;54.782;32.024;2022-11-10T02:19:52;32.15;;;20.67;;
43771;SDS011;59066;54.782;32.024;2022-11-10T02:22:38;30.95;;;24.08;;
43771;SDS011;59066;54.782;32.024;2022-11-10T02:25:24;33.25;;;25.23;;
43771;SDS011;59066;54.782;32.024;2022-11-10T02:28:14;31.73;;;26.20;;
43771;SDS011;59066;54.782;32.024;2022-11-10T02:31:00;34.38;;;25.33;;
43771;SDS011;59066;54.782;32.024;2022-11-10T02:33:47;31.73;;;24.38;;
43771;SDS011;59066;54.782;32.024;2022-11-10T02:36:33;29.13;;;19.70;;
43771;SDS011;59066;54.782;32.024;2022-11-10T02:39:19;31.13;;;22.40;;
43771;SDS011;59066;54.782;32.024;2022-11-10T02:42:05;31.85;;;22.83;;
43771;SDS011;59066;54.782;32.024;2022-11-10T02:44:54;32.22;;;20.38;;
43771;SDS011;59066;54.782;32.024;2022-11-10T02:47:41;29.63;;;19.85;;
43771;SDS011;59066;54.782;32.024;2022-11-10T02:50:27;28.10;;;21.38;;
43771;SDS011;59066;54.782;32.024;2022-11-10T02:53:13;27.65;;;20.30;;
43771;SDS011;59066;54.782;32.024;2022-11-10T02:55:59;29.33;;;21.25;;
43771;SDS011;59066;54.782;32.024;2022-11-10T02:58:45;27.05;;;20.10;;
43771;SDS011;59066;54.782;32.024;2022-11-10T03:01:30;28.20;;;18.88;;
43771;SDS011;59066;54.782;32.024;2022-11-10T03:04:16;32.20;;;22.25;;
43771;SDS011;59066;54.782;32.024;2022-11-10T03:07:02;28.40;;;21.55;;
43771;SDS011;59066;54.782;32.024;2022-11-10T03:09:48;31.45;;;22.58;;
43771;SDS011;59066;54.782;32.024;2022-11-10T03:12:34;30.83;;;21.08;;
43771;SDS011;59066;54.782;32.024;2022-11-10T03:15:21;32.38;;;21.27;;
43771;SDS011;59066;54.782;32.024;2022-11-10T03:18:07;32.17;;;21.73;;
43771;SDS011;59066;54.782;32.024;2022-11-10T03:20:53;34.65;;;23.92;;
43771;SDS011;59066;54.782;32.024;2022-11-10T03:23:39;29.30;;;19.85;;
43771;SDS011;59066;54.782;32.024;2022-11-10T03:26:26;33.47;;;21.92;;
43771;SDS011;59066;54.782;32.024;2022-11-10T03:29:12;28.08;;;21.15;;
43771;SDS011;59066;54.782;32.024;2022-11-10T03:31:58;27.65;;;21.40;;
43771;SDS011;59066;54.782;32.024;2022-11-10T03:34:44;32.50;;;21.95;;
43771;SDS011;59066;54.782;32.024;2022-11-10T03:37:30;31.48;;;23.17;;
43771;SDS011;59066;54.782;32.024;2022-11-10T03:40:16;41.33;;;23.15;;
43771;SDS011;59066;54.782;32.024;2022-11-10T03:43:01;33.42;;;20.17;;
43771;SDS011;59066;54.782;32.024;2022-11-10T03:45:47;43.95;;;24.15;;
43771;SDS011;59066;54.782;32.024;2022-11-10T03:48:33;31.20;;;21.42;;
43771;SDS011;59066;54.782;32.024;2022-11-10T03:51:20;34.90;;;22.87;;
43771;SDS011;59066;54.782;32.024;2022-11-10T03:54:06;35.47;;;20.00;;
43771;SDS011;59066;54.782;32.024;2022-11-10T03:56:52;35.42;;;23.88;;
43771;SDS011;59066;54.782;32.024;2022-11-10T03:59:39;38.97;;;24.02;;
43771;SDS011;59066;54.782;32.024;2022-11-10T04:02:25;31.38;;;22.58;;
43771;SDS011;59066;54.782;32.024;2022-11-10T04:05:11;36.45;;;23.48;;
43771;SDS011;59066;54.782;32.024;2022-11-10T04:08:15;30.40;;;21.63;;
43771;SDS011;59066;54.782;32.024;2022-11-10T04:11:20;29.83;;;23.10;;
43771;SDS011;59066;54.782;32.024;2022-11-10T04:14:25;37.17;;;23.90;;
43771;SDS011;59066;54.782;32.024;2022-11-10T04:17:29;35.35;;;25.88;;
43771;SDS011;59066;54.782;32.024;2022-11-10T04:20:16;35.22;;;26.08;;
43771;SDS011;59066;54.782;32.024;2022-11-10T04:23:02;39.53;;;25.92;;
43771;SDS011;59066;54.782;32.024;2022-11-10T04:26:07;36.53;;;23.55;;
43771;SDS011;59066;54.782;32.024;2022-11-10T04:29:14;33.10;;;22.13;;
43771;SDS011;59066;54.782;32.024;2022-11-10T04:32:01;42.05;;;26.67;;
43771;SDS011;59066;54.782;32.024;2022-11-10T04:34:48;39.60;;;25.30;;
43771;SDS011;59066;54.782;32.024;2022-11-10T04:37:33;40.45;;;25.52;;
43771;SDS011;59066;54.782;32.024;2022-11-10T04:40:19;31.42;;;22.48;;
43771;SDS011;59066;54.782;32.024;2022-11-10T04:43:05;33.65;;;23.02;;
43771;SDS011;59066;54.782;32.024;2022-11-10T04:45:51;35.75;;;21.17;;
43771;SDS011;59066;54.782;32.024;2022-11-10T04:48:37;38.72;;;22.52;;
43771;SDS011;59066;54.782;32.024;2022-11-10T04:51:33;39.05;;;22.55;;
43771;SDS011;59066;54.782;32.024;2022-11-10T04:54:20;35.58;;;23.40;;
43771;SDS011;59066;54.782;32.024;2022-11-10T04:57:06;37.78;;;22.88;;
43771;SDS011;59066;54.782;32.024;2022-11-10T04:59:52;36.53;;;23.38;;
43771;SDS011;59066;54.782;32.024;2022-11-10T05:02:38;38.78;;;23.15;;
43771;SDS011;59066;54.782;32.024;2022-11-10T05:05:24;37.75;;;21.90;;
43771;SDS011;59066;54.782;32.024;2022-11-10T05:08:10;46.30;;;25.27;;
43771;SDS011;59066;54.782;32.024;2022-11-10T05:10:56;41.28;;;23.23;;
43771;SDS011;59066;54.782;32.024;2022-11-10T05:13:42;33.13;;;21.38;;
43771;SDS011;59066;54.782;32.024;2022-11-10T05:19:14;35.17;;;24.10;;
43771;SDS011;59066;54.782;32.024;2022-11-10T05:22:00;39.80;;;24.77;;
43771;SDS011;59066;54.782;32.024;2022-11-10T05:24:46;34.97;;;20.92;;
43771;SDS011;59066;54.782;32.024;2022-11-10T05:27:32;38.58;;;24.70;;
43771;SDS011;59066;54.782;32.024;2022-11-10T05:30:18;36.67;;;24.27;;
43771;SDS011;59066;54.782;32.024;2022-11-10T05:33:04;38.63;;;26.60;;
43771;SDS011;59066;54.782;32.024;2022-11-10T05:35:51;42.72;;;24.02;;
43771;SDS011;59066;54.782;32.024;2022-11-10T05:38:37;46.85;;;24.02;;
43771;SDS011;59066;54.782;32.024;2022-11-10T05:41:27;44.00;;;25.42;;
43771;SDS011;59066;54.782;32.024;2022-11-10T05:44:13;51.53;;;24.42;;
43771;SDS011;59066;54.782;32.024;2022-11-10T05:46:59;38.97;;;24.55;;
43771;SDS011;59066;54.782;32.024;2022-11-10T05:49:44;35.67;;;23.05;;
43771;SDS011;59066;54.782;32.024;2022-11-10T05:52:30;33.35;;;20.52;;
43771;SDS011;59066;54.782;32.024;2022-11-10T05:55:18;39.80;;;24.47;;
43771;SDS011;59066;54.782;32.024;2022-11-10T05:58:09;42.50;;;28.58;;
43771;SDS011;59066;54.782;32.024;2022-11-10T06:00:55;56.35;;;23.17;;
43771;SDS011;59066;54.782;32.024;2022-11-10T06:03:41;38.90;;;24.83;;
43771;SDS011;59066;54.782;32.024;2022-11-10T06:06:28;47.37;;;24.43;;
43771;SDS011;59066;54.782;32.024;2022-11-10T06:09:14;35.60;;;23.55;;
43771;SDS011;59066;54.782;32.024;2022-11-10T06:11:59;40.05;;;25.95;;
43771;SDS011;59066;54.782;32.024;2022-11-10T06:14:47;41.55;;;24.30;;
43771;SDS011;59066;54.782;32.024;2022-11-10T06:17:35;44.10;;;24.17;;
43771;SDS011;59066;54.782;32.024;2022-11-10T06:20:22;44.15;;;27.20;;
43771;SDS011;59066;54.782;32.024;2022-11-10T06:23:09;48.60;;;26.15;;
43771;SDS011;59066;54.782;32.024;2022-11-10T06:25:57;43.50;;;26.40;;
43771;SDS011;59066;54.782;32.024;2022-11-10T06:28:42;43.13;;;24.92;;
43771;SDS011;59066;54.782;32.024;2022-11-10T06:34:15;43.67;;;27.20;;
43771;SDS011;59066;54.782;32.024;2022-11-10T06:37:01;44.42;;;25.77;;
43771;SDS011;59066;54.782;32.024;2022-11-10T06:39:47;43.75;;;25.27;;
43771;SDS011;59066;54.782;32.024;2022-11-10T06:42:33;44.75;;;21.67;;
43771;SDS011;59066;54.782;32.024;2022-11-10T06:45:20;63.45;;;27.02;;
43771;SDS011;59066;54.782;32.024;2022-11-10T06:48:06;34.80;;;23.33;;
43771;SDS011;59066;54.782;32.024;2022-11-10T06:50:59;41.65;;;24.25;;
43771;SDS011;59066;54.782;32.024;2022-11-10T06:53:46;46.50;;;21.25;;
43771;SDS011;59066;54.782;32.024;2022-11-10T06:56:32;51.75;;;25.20;;
43771;SDS011;59066;54.782;32.024;2022-11-10T07:02:05;35.13;;;23.95;;
43771;SDS011;59066;54.782;32.024;2022-11-10T07:04:54;38.83;;;24.75;;
43771;SDS011;59066;54.782;32.024;2022-11-10T07:07:40;36.20;;;25.60;;
43771;SDS011;59066;54.782;32.024;2022-11-10T07:10:26;38.50;;;25.08;;
43771;SDS011;59066;54.782;32.024;2022-11-10T07:13:12;62.70;;;26.58;;
43771;SDS011;59066;54.782;32.024;2022-11-10T07:15:58;49.22;;;23.65;;
43771;SDS011;59066;54.782;32.024;2022-11-10T07:18:49;37.80;;;24.90;;
43771;SDS011;59066;54.782;32.024;2022-11-10T07:21:34;56.40;;;25.95;;
43771;SDS011;59066;54.782;32.024;2022-11-10T07:24:21;53.85;;;28.75;;
43771;SDS011;59066;54.782;32.024;2022-11-10T07:27:07;51.50;;;26.07;;
43771;SDS011;59066;54.782;32.024;2022-11-10T07:29:53;37.63;;;26.45;;
43771;SDS011;59066;54.782;32.024;2022-11-10T07:32:39;50.20;;;27.38;;
43771;SDS011;59066;54.782;32.024;2022-11-10T07:35:25;54.08;;;27.83;;
43771;SDS011;59066;54.782;32.024;2022-11-10T07:38:12;47.95;;;26.92;;
43771;SDS011;59066;54.782;32.024;2022-11-10T07:40:59;55.83;;;29.33;;
43771;SDS011;59066;54.782;32.024;2022-11-10T07:43:45;56.80;;;29.38;;
43771;SDS011;59066;54.782;32.024;2022-11-10T07:46:31;48.97;;;27.35;;
43771;SDS011;59066;54.782;32.024;2022-11-10T07:49:17;40.78;;;25.85;;
43771;SDS011;59066;54.782;32.024;2022-11-10T07:52:03;45.08;;;24.95;;
43771;SDS011;59066;54.782;32.024;2022-11-10T07:54:49;52.63;;;26.23;;
43771;SDS011;59066;54.782;32.024;2022-11-10T07:57:35;45.83;;;25.90;;
43771;SDS011;59066;54.782;32.024;2022-11-10T08:00:20;56.63;;;26.45;;
43771;SDS011;59066;54.782;32.024;2022-11-10T08:03:11;50.90;;;27.93;;
43771;SDS011;59066;54.782;32.024;2022-11-10T08:05:58;32.92;;;20.42;;
43771;SDS011;59066;54.782;32.024;2022-11-10T08:08:44;42.63;;;25.85;;
43771;SDS011;59066;54.782;32.024;2022-11-10T08:11:31;40.70;;;27.00;;
43771;SDS011;59066;54.782;32.024;2022-11-10T08:14:17;39.43;;;22.63;;
43771;SDS011;59066;54.782;32.024;2022-11-10T08:17:03;46.47;;;30.17;;
43771;SDS011;59066;54.782;32.024;2022-11-10T08:19:49;52.15;;;26.80;;
43771;SDS011;59066;54.782;32.024;2022-11-10T08:22:35;41.45;;;28.02;;
43771;SDS011;59066;54.782;32.024;2022-11-10T08:25:21;47.42;;;25.90;;
43771;SDS011;59066;54.782;32.024;2022-11-10T08:28:08;46.38;;;25.83;;
43771;SDS011;59066;54.782;32.024;2022-11-10T08:31:00;59.30;;;29.15;;
43771;SDS011;59066;54.782;32.024;2022-11-10T08:33:49;45.67;;;28.50;;
43771;SDS011;59066;54.782;32.024;2022-11-10T08:36:35;79.22;;;30.38;;
43771;SDS011;59066;54.782;32.024;2022-11-10T08:39:22;40.08;;;27.10;;
43771;SDS011;59066;54.782;32.024;2022-11-10T08:42:22;45.10;;;29.92;;
43771;SDS011;59066;54.782;32.024;2022-11-10T08:45:08;53.03;;;32.07;;
43771;SDS011;59066;54.782;32.024;2022-11-10T08:47:58;54.38;;;27.42;;
43771;SDS011;59066;54.782;32.024;2022-11-10T08:50:45;48.88;;;28.42;;
43771;SDS011;59066;54.782;32.024;2022-11-10T08:53:33;50.03;;;35.03;;
43771;SDS011;59066;54.782;32.024;2022-11-10T08:56:19;44.58;;;29.33;;
43771;SDS011;59066;54.782;32.024;2022-11-10T08:59:05;42.38;;;26.50;;
43771;SDS011;59066;54.782;32.024;2022-11-10T09:01:51;47.13;;;28.75;;
43771;SDS011;59066;54.782;32.024;2022-11-10T09:04:37;38.53;;;24.15;;
43771;SDS011;59066;54.782;32.024;2022-11-10T09:07:23;62.75;;;35.10;;
43771;SDS011;59066;54.782;32.024;2022-11-10T09:10:09;54.75;;;29.92;;
43771;SDS011;59066;54.782;32.024;2022-11-10T09:12:59;62.70;;;31.92;;
43771;SDS011;59066;54.782;32.024;2022-11-10T09:15:45;63.70;;;34.38;;
43771;SDS011;59066;54.782;32.024;2022-11-10T09:18:33;49.22;;;33.63;;
43771;SDS011;59066;54.782;32.024;2022-11-10T09:24:05;46.75;;;29.88;;
43771;SDS011;59066;54.782;32.024;2022-11-10T09:26:51;54.03;;;34.65;;
43771;SDS011;59066;54.782;32.024;2022-11-10T09:29:37;43.87;;;29.73;;
43771;SDS011;59066;54.782;32.024;2022-11-10T09:32:23;47.85;;;31.17;;
43771;SDS011;59066;54.782;32.024;2022-11-10T09:35:09;48.00;;;31.83;;
43771;SDS011;59066;54.782;32.024;2022-11-10T09:37:55;49.85;;;29.80;;
43771;SDS011;59066;54.782;32.024;2022-11-10T09:46:52;65.20;;;31.88;;
43771;SDS011;59066;54.782;32.024;2022-11-10T09:49:51;50.13;;;30.37;;
43771;SDS011;59066;54.782;32.024;2022-11-10T09:52:41;50.63;;;33.65;;
43771;SDS011;59066;54.782;32.024;2022-11-10T09:59:01;56.45;;;33.67;;
43771;SDS011;59066;54.782;32.024;2022-11-10T10:01:50;46.72;;;28.65;;
43771;SDS011;59066;54.782;32.024;2022-11-10T10:10:59;61.83;;;33.17;;
43771;SDS011;59066;54.782;32.024;2022-11-10T10:16:43;45.55;;;31.08;;
43771;SDS011;59066;54.782;32.024;2022-11-10T10:25:12;45.97;;;29.40;;
43771;SDS011;59066;54.782;32.024;2022-11-10T10:31:22;53.20;;;27.63;;
43771;SDS011;59066;54.782;32.024;2022-11-10T10:34:12;49.25;;;28.95;;
43771;SDS011;59066;54.782;32.024;2022-11-10T10:36:59;56.47;;;32.65;;
43771;SDS011;59066;54.782;32.024;2022-11-10T10:39:45;53.60;;;31.45;;
43771;SDS011;59066;54.782;32.024;2022-11-10T10:42:35;65.43;;;35.13;;
43771;SDS011;59066;54.782;32.024;2022-11-10T10:45:25;56.72;;;30.38;;
43771;SDS011;59066;54.782;32.024;2022-11-10T10:48:31;64.35;;;35.10;;
43771;SDS011;59066;54.782;32.024;2022-11-10T10:51:27;54.00;;;29.13;;
43771;SDS011;59066;54.782;32.024;2022-11-10T10:54:30;64.05;;;33.17;;
43771;SDS011;59066;54.782;32.024;2022-11-10T11:00:30;68.55;;;41.08;;
43771;SDS011;59066;54.782;32.024;2022-11-10T11:03:21;66.70;;;42.85;;
43771;SDS011;59066;54.782;32.024;2022-11-10T11:09:06;68.13;;;40.83;;
43771;SDS011;59066;54.782;32.024;2022-11-10T11:12:03;57.25;;;36.08;;
43771;SDS011;59066;54.782;32.024;2022-11-10T11:18:16;56.10;;;33.00;;
43771;SDS011;59066;54.782;32.024;2022-11-10T11:21:17;57.55;;;33.63;;
43771;SDS011;59066;54.782;32.024;2022-11-10T11:24:14;63.42;;;38.55;;
43771;SDS011;59066;54.782;32.024;2022-11-10T11:27:16;57.03;;;31.50;;
43771;SDS011;59066;54.782;32.024;2022-11-10T11:30:08;65.43;;;39.03;;
43771;SDS011;59066;54.782;32.024;2022-11-10T11:33:09;72.68;;;38.17;;
43771;SDS011;59066;54.782;32.024;2022-11-10T11:42:34;72.13;;;37.85;;
43771;SDS011;59066;54.782;32.024;2022-11-10T11:48:49;55.17;;;28.88;;
43771;SDS011;59066;54.782;32.024;2022-11-10T11:55:36;56.15;;;28.80;;
43771;SDS011;59066;54.782;32.024;2022-11-10T11:58:19;64.03;;;32.08;;
43771;SDS011;59066;54.782;32.024;2022-11-10T12:04:21;60.83;;;30.50;;
43771;SDS011;59066;54.782;32.024;2022-11-10T12:16:28;68.57;;;36.45;;
43771;SDS011;59066;54.782;32.024;2022-11-10T12:25:37;63.17;;;32.25;;
43771;SDS011;59066;54.782;32.024;2022-11-10T12:28:35;81.85;;;39.78;;
43771;SDS011;59066;54.782;32.024;2022-11-10T12:31:25;85.32;;;38.75;;
43771;SDS011;59066;54.782;32.024;2022-11-10T12:34:17;80.47;;;40.17;;
43771;SDS011;59066;54.782;32.024;2022-11-10T12:37:47;71.30;;;36.40;;
43771;SDS011;59066;54.782;32.024;2022-11-10T12:40:39;80.15;;;37.67;;
43771;SDS011;59066;54.782;32.024;2022-11-10T12:43:36;79.40;;;39.53;;
43771;SDS011;59066;54.782;32.024;2022-11-10T12:46:28;73.95;;;32.60;;
43771;SDS011;59066;54.782;32.024;2022-11-10T12:49:28;68.50;;;34.50;;
43771;SDS011;59066;54.782;32.024;2022-11-10T12:52:21;72.00;;;36.17;;
43771;SDS011;59066;54.782;32.024;2022-11-10T12:55:17;63.72;;;33.08;;
43771;SDS011;59066;54.782;32.024;2022-11-10T12:58:10;78.55;;;37.97;;
43771;SDS011;59066;54.782;32.024;2022-11-10T13:01:02;76.55;;;37.85;;
43771;SDS011;59066;54.782;32.024;2022-11-10T13:03:57;71.80;;;35.75;;
43771;SDS011;59066;54.782;32.024;2022-11-10T13:06:46;66.20;;;35.03;;
43771;SDS011;59066;54.782;32.024;2022-11-10T13:09:38;68.07;;;29.20;;
43771;SDS011;59066;54.782;32.024;2022-11-10T13:12:26;100.35;;;45.97;;
43771;SDS011;59066;54.782;32.024;2022-11-10T13:21:25;72.50;;;38.28;;
43771;SDS011;59066;54.782;32.024;2022-11-10T13:24:37;80.90;;;38.43;;
43771;SDS011;59066;54.782;32.024;2022-11-10T13:30:36;75.57;;;34.38;;
43771;SDS011;59066;54.782;32.024;2022-11-10T13:36:36;95.35;;;42.92;;
43771;SDS011;59066;54.782;32.024;2022-11-10T13:39:27;85.35;;;38.13;;
43771;SDS011;59066;54.782;32.024;2022-11-10T13:42:17;93.00;;;41.95;;
43771;SDS011;59066;54.782;32.024;2022-11-10T13:57:16;110.25;;;45.80;;
43771;SDS011;59066;54.782;32.024;2022-11-10T14:03:03;99.63;;;43.15;;
43771;SDS011;59066;54.782;32.024;2022-11-10T14:06:15;129.75;;;41.22;;
43771;SDS011;59066;54.782;32.024;2022-11-10T14:12:27;123.65;;;49.35;;
43771;SDS011;59066;54.782;32.024;2022-11-10T14:15:20;109.63;;;45.53;;
43771;SDS011;59066;54.782;32.024;2022-11-10T14:18:16;113.00;;;49.20;;
43771;SDS011;59066;54.782;32.024;2022-11-10T14:21:11;111.60;;;45.63;;
43771;SDS011;59066;54.782;32.024;2022-11-10T14:24:13;118.65;;;46.63;;
43771;SDS011;59066;54.782;32.024;2022-11-10T14:27:04;124.88;;;51.38;;
43771;SDS011;59066;54.782;32.024;2022-11-10T14:32:53;108.35;;;43.33;;
43771;SDS011;59066;54.782;32.024;2022-11-10T14:38:43;110.57;;;43.25;;
43771;SDS011;59066;54.782;32.024;2022-11-10T14:41:30;109.25;;;45.88;;
43771;SDS011;59066;54.782;32.024;2022-11-10T14:44:23;102.05;;;39.25;;
43771;SDS011;59066;54.782;32.024;2022-11-10T14:50:14;71.50;;;33.25;;
43771;SDS011;59066;54.782;32.024;2022-11-10T14:53:06;91.80;;;37.15;;
43771;SDS011;59066;54.782;32.024;2022-11-10T14:56:05;101.40;;;39.90;;
43771;SDS011;59066;54.782;32.024;2022-11-10T14:58:57;99.88;;;41.20;;
43771;SDS011;59066;54.782;32.024;2022-11-10T15:01:51;91.07;;;37.80;;
43771;SDS011;59066;54.782;32.024;2022-11-10T15:04:42;96.65;;;41.95;;
43771;SDS011;59066;54.782;32.024;2022-11-10T15:07:30;85.13;;;36.60;;
43771;SDS011;59066;54.782;32.024;2022-11-10T15:10:18;85.47;;;40.97;;
43771;SDS011;59066;54.782;32.024;2022-11-10T15:19:22;59.17;;;33.55;;
43771;SDS011;59066;54.782;32.024;2022-11-10T15:22:19;60.63;;;31.02;;
43771;SDS011;59066;54.782;32.024;2022-11-10T15:25:17;61.42;;;30.73;;
43771;SDS011;59066;54.782;32.024;2022-11-10T15:31:05;64.05;;;30.40;;
43771;SDS011;59066;54.782;32.024;2022-11-10T15:33:54;68.82;;;32.70;;
43771;SDS011;59066;54.782;32.024;2022-11-10T15:36:42;72.30;;;34.65;;
43771;SDS011;59066;54.782;32.024;2022-11-10T15:39:28;75.27;;;33.23;;
43771;SDS011;59066;54.782;32.024;2022-11-10T15:42:16;69.20;;;30.00;;
43771;SDS011;59066;54.782;32.024;2022-11-10T15:45:05;78.18;;;35.70;;
43771;SDS011;59066;54.782;32.024;2022-11-10T15:47:51;65.13;;;31.13;;
43771;SDS011;59066;54.782;32.024;2022-11-10T15:50:37;72.38;;;37.88;;
43771;SDS011;59066;54.782;32.024;2022-11-10T15:56:22;81.37;;;36.50;;
43771;SDS011;59066;54.782;32.024;2022-11-10T15:59:09;71.20;;;32.90;;
43771;SDS011;59066;54.782;32.024;2022-11-10T16:01:56;73.27;;;33.63;;
43771;SDS011;59066;54.782;32.024;2022-11-10T16:04:41;83.55;;;38.63;;
43771;SDS011;59066;54.782;32.024;2022-11-10T16:07:27;76.00;;;32.75;;
43771;SDS011;59066;54.782;32.024;2022-11-10T16:10:13;79.50;;;37.78;;
43771;SDS011;59066;54.782;32.024;2022-11-10T16:12:59;81.53;;;38.95;;
43771;SDS011;59066;54.782;32.024;2022-11-10T16:15:45;82.68;;;37.30;;
43771;SDS011;59066;54.782;32.024;2022-11-10T16:18:31;78.93;;;38.92;;
43771;SDS011;59066;54.782;32.024;2022-11-10T16:21:18;77.77;;;34.80;;
43771;SDS011;59066;54.782;32.024;2022-11-10T16:24:05;98.28;;;45.88;;
43771;SDS011;59066;54.782;32.024;2022-11-10T16:26:52;71.50;;;35.83;;
43771;SDS011;59066;54.782;32.024;2022-11-10T16:29:38;89.27;;;39.57;;
43771;SDS011;59066;54.782;32.024;2022-11-10T16:32:26;89.60;;;38.17;;
43771;SDS011;59066;54.782;32.024;2022-11-10T16:35:12;89.40;;;42.03;;
43771;SDS011;59066;54.782;32.024;2022-11-10T16:37:59;88.63;;;38.97;;
43771;SDS011;59066;54.782;32.024;2022-11-10T16:40:51;84.77;;;41.53;;
43771;SDS011;59066;54.782;32.024;2022-11-10T16:43:39;82.85;;;38.50;;
43771;SDS011;59066;54.782;32.024;2022-11-10T16:46:25;96.00;;;41.67;;
43771;SDS011;59066;54.782;32.024;2022-11-10T16:49:20;84.10;;;33.70;;
43771;SDS011;59066;54.782;32.024;2022-11-10T16:52:10;107.13;;;41.05;;
43771;SDS011;59066;54.782;32.024;2022-11-10T16:54:59;93.68;;;39.97;;
43771;SDS011;59066;54.782;32.024;2022-11-10T16:57:46;99.22;;;38.03;;
43771;SDS011;59066;54.782;32.024;2022-11-10T17:00:32;100.63;;;37.17;;
43771;SDS011;59066;54.782;32.024;2022-11-10T17:03:28;106.32;;;43.42;;
43771;SDS011;59066;54.782;32.024;2022-11-10T17:06:16;107.43;;;46.60;;
43771;SDS011;59066;54.782;32.024;2022-11-10T17:11:53;98.32;;;35.90;;
43771;SDS011;59066;54.782;32.024;2022-11-10T17:14:39;88.67;;;36.23;;
43771;SDS011;59066;54.782;32.024;2022-11-10T17:17:25;100.93;;;44.88;;
43771;SDS011;59066;54.782;32.024;2022-11-10T17:20:19;94.78;;;39.25;;
43771;SDS011;59066;54.782;32.024;2022-11-10T17:23:09;88.20;;;40.63;;
43771;SDS011;59066;54.782;32.024;2022-11-10T17:25:58;93.88;;;37.42;;
43771;SDS011;59066;54.782;32.024;2022-11-10T17:28:44;100.10;;;42.08;;
43771;SDS011;59066;54.782;32.024;2022-11-10T17:31:30;96.50;;;40.87;;
43771;SDS011;59066;54.782;32.024;2022-11-10T17:34:16;105.80;;;43.72;;
43771;SDS011;59066;54.782;32.024;2022-11-10T17:37:02;94.70;;;39.42;;
43771;SDS011;59066;54.782;32.024;2022-11-10T17:42:35;117.20;;;48.45;;
43771;SDS011;59066;54.782;32.024;2022-11-10T17:45:24;106.57;;;39.75;;
43771;SDS011;59066;54.782;32.024;2022-11-10T17:48:11;116.20;;;38.70;;
43771;SDS011;59066;54.782;32.024;2022-11-10T17:50:57;100.47;;;35.03;;
43771;SDS011;59066;54.782;32.024;2022-11-10T17:53:43;129.70;;;46.30;;
43771;SDS011;59066;54.782;32.024;2022-11-10T17:56:29;118.40;;;42.50;;
43771;SDS011;59066;54.782;32.024;2022-11-10T17:59:15;121.35;;;44.80;;
43771;SDS011;59066;54.782;32.024;2022-11-10T18:02:01;103.85;;;42.30;;
43771;SDS011;59066;54.782;32.024;2022-11-10T18:04:48;111.03;;;41.80;;
43771;SDS011;59066;54.782;32.024;2022-11-10T18:07:34;102.90;;;34.08;;
43771;SDS011;59066;54.782;32.024;2022-11-10T18:10:20;107.32;;;48.58;;
43771;SDS011;59066;54.782;32.024;2022-11-10T18:13:06;97.90;;;36.28;;
43771;SDS011;59066;54.782;32.024;2022-11-10T18:15:53;95.18;;;37.58;;
43771;SDS011;59066;54.782;32.024;2022-11-10T18:18:44;109.63;;;45.17;;
43771;SDS011;59066;54.782;32.024;2022-11-10T18:21:29;99.97;;;36.20;;
43771;SDS011;59066;54.782;32.024;2022-11-10T18:24:16;86.47;;;32.17;;
43771;SDS011;59066;54.782;32.024;2022-11-10T18:27:02;89.53;;;40.38;;
43771;SDS011;59066;54.782;32.024;2022-11-10T18:29:47;86.35;;;36.42;;
43771;SDS011;59066;54.782;32.024;2022-11-10T18:32:33;92.78;;;39.25;;